Time;durP1;ratioP1;P1;durP2;ratioP2;P2;SDS_P1;SDS_P2;PMS_P1;PMS_P2;Temp;Humidity;BMP_temperature;BMP_pressure;BME280_temperature;BME280_humidity;BME280_pressure;Samples;Min_cycle;Max_cycle;Signal;HPM_P1;HPM_P2
2022/02/26 00:00:09;;;;;;;11.87;3.10;;;;;;;2.18;100.00;101537.34;5062750;28;20230;-72
2022/02/26 00:02:35;;;;;;;6.37;3.00;;;;;;;2.16;100.00;101531.28;5065852;28;20602;-72
2022/02/26 00:05:02;;;;;;;3.90;2.50;;;;;;;2.14;100.00;101541.53;5064757;28;20198;-72
2022/02/26 00:07:28;;;;;;;5.47;2.60;;;;;;;2.12;100.00;101544.94;5067731;28;20226;-72
2022/02/26 00:09:54;;;;;;;6.60;2.80;;;;;;;2.12;100.00;101548.38;5062253;28;20233;-72
2022/02/26 00:12:21;;;;;;;3.60;2.30;;;;;;;2.12;100.00;101548.38;5070415;28;20695;-72
2022/02/26 00:14:47;;;;;;;7.80;2.70;;;;;;;2.12;100.00;101545.78;5066376;28;20190;-72
2022/02/26 00:17:15;;;;;;;4.67;2.57;;;;;;;2.11;100.00;101558.63;5066194;28;20201;-72
2022/02/26 00:19:41;;;;;;;6.50;2.37;;;;;;;2.12;100.00;101558.66;5104624;28;20191;-72
2022/02/26 00:22:09;;;;;;;4.60;2.70;;;;;;;2.12;100.00;101570.66;5085182;28;20178;-72
2022/02/26 00:24:35;;;;;;;8.07;3.03;;;;;;;2.11;100.00;101567.22;5123385;27;20207;-72
2022/02/26 00:27:02;;;;;;;6.13;2.90;;;;;;;2.13;100.00;101569.81;5085098;28;20197;-72
2022/02/26 00:29:28;;;;;;;7.53;2.97;;;;;;;2.13;100.00;101568.13;5067457;28;20339;-72
2022/02/26 00:31:56;;;;;;;4.40;2.60;;;;;;;2.14;100.00;101576.72;5064986;28;20204;-72
2022/02/26 00:34:23;;;;;;;4.63;2.53;;;;;;;2.14;100.00;101579.28;5063311;28;20282;-73
2022/02/26 00:36:50;;;;;;;6.07;3.00;;;;;;;2.13;100.00;101586.13;5065896;28;20214;-73
2022/02/26 00:39:16;;;;;;;9.73;2.60;;;;;;;2.14;100.00;101587.00;5065215;28;20716;-72
2022/02/26 00:41:42;;;;;;;10.47;3.00;;;;;;;2.12;100.00;101586.09;5065514;28;20226;-73
2022/02/26 00:44:09;;;;;;;6.63;2.37;;;;;;;2.12;100.00;101586.09;5071142;28;20194;-73
2022/02/26 00:46:37;;;;;;;9.73;2.90;;;;;;;2.13;100.00;101592.97;5065106;28;20190;-73
2022/02/26 00:51:49;;;;;;;7.90;2.93;;;;;;;2.18;100.00;101599.09;5099351;27;20195;-72
2022/02/26 00:54:15;;;;;;;11.83;2.60;;;;;;;2.17;100.00;101610.22;5103798;27;20211;-72
2022/02/26 00:56:42;;;;;;;9.93;2.67;;;;;;;2.18;100.00;101604.25;5067970;28;20210;-73
2022/02/26 00:59:09;;;;;;;8.77;2.87;;;;;;;2.19;100.00;101612.00;5069033;28;20219;-74
2022/02/26 01:01:36;;;;;;;12.57;3.00;;;;;;;2.21;100.00;101614.59;5066084;28;20222;-75
2022/02/26 01:04:02;;;;;;;8.17;2.37;;;;;;;2.22;100.00;101619.78;5064833;28;20202;-72
2022/02/26 01:06:29;;;;;;;8.70;2.80;;;;;;;2.23;100.00;101623.22;5067514;28;20217;-73
2022/02/26 01:08:57;;;;;;;11.03;2.73;;;;;;;2.24;100.00;101620.69;5075015;28;20307;-72
2022/02/26 01:11:23;;;;;;;8.97;3.13;;;;;;;2.24;100.00;101632.72;5070742;28;20191;-72
2022/02/26 01:13:50;;;;;;;9.30;2.90;;;;;;;2.24;100.00;101633.56;5073063;28;20217;-73
2022/02/26 01:16:16;;;;;;;10.30;2.90;;;;;;;2.24;100.00;101631.00;5083004;28;20213;-73
2022/02/26 01:18:43;;;;;;;11.97;2.63;;;;;;;2.24;100.00;101637.84;5090342;28;20282;-72
2022/02/26 01:21:09;;;;;;;12.33;2.83;;;;;;;2.21;100.00;101636.06;5095502;28;20218;-73
2022/02/26 01:23:36;;;;;;;11.90;3.00;;;;;;;2.24;100.00;101643.00;5085434;28;20835;-72
2022/02/26 01:26:04;;;;;;;11.80;3.20;;;;;;;2.24;100.00;101650.72;5085244;28;20191;-72
2022/02/26 01:28:31;;;;;;;12.23;2.93;;;;;;;2.24;100.00;101650.72;5063048;28;20222;-73
2022/02/26 01:30:58;;;;;;;7.30;2.20;;;;;;;2.24;100.00;101656.72;5069297;28;20211;-72
2022/02/26 01:33:25;;;;;;;11.47;2.30;;;;;;;2.26;100.00;101660.19;5065963;28;20198;-73
2022/02/26 01:35:52;;;;;;;12.93;2.13;;;;;;;2.25;100.00;101663.63;5079211;28;20246;-73
2022/02/26 01:38:18;;;;;;;16.70;2.60;;;;;;;2.24;100.00;101654.16;5087539;28;20273;-72
2022/02/26 01:40:45;;;;;;;14.07;2.63;;;;;;;2.25;100.00;101662.72;5072111;28;20230;-73
2022/02/26 01:43:13;;;;;;;12.70;2.77;;;;;;;2.24;100.00;101669.59;5073881;28;20198;-73
2022/02/26 01:45:40;;;;;;;14.20;2.93;;;;;;;2.24;100.00;101667.03;5067331;28;20198;-74
2022/02/26 01:48:07;;;;;;;16.93;2.37;;;;;;;2.24;100.00;101672.16;5067604;28;20214;-73
2022/02/26 01:50:34;;;;;;;15.03;3.00;;;;;;;2.22;100.00;101672.97;5069627;28;20191;-74
2022/02/26 01:53:02;;;;;;;15.97;2.73;;;;;;;2.23;100.00;101678.16;5066812;28;20282;-74
2022/02/26 01:55:28;;;;;;;20.87;3.13;;;;;;;2.22;100.00;101684.13;5066774;28;20198;-73
2022/02/26 01:57:56;;;;;;;22.93;2.87;;;;;;;2.22;100.00;101681.56;5068367;28;20653;-75
2022/02/26 02:00:24;;;;;;;25.37;3.17;;;;;;;2.21;100.00;101696.97;5065740;28;20200;-72
2022/02/26 02:02:53;;;;;;;19.23;2.70;;;;;;;2.22;100.00;101691.00;5072199;28;20203;-72
2022/02/26 02:05:19;;;;;;;12.93;2.17;;;;;;;2.22;100.00;101698.72;5062790;28;20676;-72
2022/02/26 02:07:46;;;;;;;14.20;2.60;;;;;;;2.20;100.00;101701.25;5087106;28;20234;-72
2022/02/26 02:10:13;;;;;;;12.07;2.10;;;;;;;2.19;100.00;101702.06;5112117;28;20195;-73
2022/02/26 02:12:41;;;;;;;21.87;2.60;;;;;;;2.17;100.00;101708.88;5072910;28;20183;-72
2022/02/26 02:15:08;;;;;;;19.50;2.73;;;;;;;2.16;100.00;101707.13;5077211;28;20200;-72
2022/02/26 02:17:38;;;;;;;13.97;2.53;;;;;;;2.16;100.00;101713.97;5065021;28;20234;-74
2022/02/26 02:20:05;;;;;;;12.23;2.67;;;;;;;2.14;100.00;101710.50;5069146;28;20604;-74
2022/02/26 02:22:33;;;;;;;13.77;2.80;;;;;;;2.11;100.00;101713.88;5068918;28;20222;-73
2022/02/26 02:25:01;;;;;;;14.53;2.20;;;;;;;2.12;100.00;101720.75;5062539;28;20604;-74
2022/02/26 02:27:27;;;;;;;17.77;2.60;;;;;;;2.12;100.00;101719.88;5066924;28;20577;-73
2022/02/26 02:29:54;;;;;;;10.67;2.57;;;;;;;2.09;100.00;101723.22;5075811;28;20953;-73
2022/02/26 02:32:20;;;;;;;12.87;2.70;;;;;;;2.08;100.00;101726.66;5084929;28;20246;-72
2022/02/26 02:34:47;;;;;;;10.83;2.50;;;;;;;2.07;100.00;101730.91;5085345;28;20191;-73
2022/02/26 02:37:13;;;;;;;12.83;2.67;;;;;;;2.06;100.00;101730.91;5088916;28;20212;-72
2022/02/26 02:39:43;;;;;;;16.33;2.77;;;;;;;2.04;100.00;101735.09;5083645;28;20210;-73
2022/02/26 02:42:10;;;;;;;12.20;2.07;;;;;;;2.02;100.00;101727.38;5085664;28;20619;-72
2022/02/26 02:44:36;;;;;;;10.77;2.80;;;;;;;2.02;100.00;101737.66;5085479;28;20194;-72
2022/02/26 02:47:03;;;;;;;13.23;1.93;;;;;;;2.01;100.00;101735.91;5088361;28;20204;-72
2022/02/26 02:49:29;;;;;;;14.20;2.20;;;;;;;1.99;100.00;101742.72;5090754;28;20580;-73
2022/02/26 02:51:55;;;;;;;13.57;2.53;;;;;;;1.98;100.00;101746.09;5080477;28;20212;-72
2022/02/26 02:54:22;;;;;;;15.87;2.03;;;;;;;1.96;100.00;101742.63;5076911;28;20207;-72
2022/02/26 02:56:51;;;;;;;13.23;2.20;;;;;;;1.95;100.00;101750.28;5083200;28;20765;-72
2022/02/26 02:59:18;;;;;;;14.00;2.50;;;;;;;1.92;100.00;101751.09;5081861;28;20357;-72
2022/02/26 03:01:45;;;;;;;13.17;2.57;;;;;;;1.91;100.00;101757.06;5082460;28;20217;-72
2022/02/26 03:04:58;;;;;;;17.53;2.20;;;;;;;1.89;100.00;101758.72;5083070;28;20237;-72
2022/02/26 03:07:24;;;;;;;15.40;2.57;;;;;;;1.89;100.00;101767.31;5081428;28;20207;-73
2022/02/26 03:09:51;;;;;;;15.40;2.37;;;;;;;1.91;100.00;101771.63;5086553;28;20187;-72
2022/02/26 03:12:19;;;;;;;9.53;2.60;;;;;;;1.89;100.00;101769.00;5084325;28;20201;-73
2022/02/26 03:14:46;;;;;;;14.63;2.03;;;;;;;1.88;100.00;101783.59;5084247;28;20663;-72
2022/02/26 03:17:13;;;;;;;17.13;3.07;;;;;;;1.88;100.00;101780.13;5088949;28;20189;-72
2022/02/26 03:19:42;;;;;;;17.13;3.00;;;;;;;1.87;100.00;101784.41;5089609;28;20213;-73
2022/02/26 03:22:09;;;;;;;14.00;2.20;;;;;;;1.89;100.00;101787.00;5084378;28;20665;-72
2022/02/26 03:24:37;;;;;;;9.87;1.97;;;;;;;1.88;100.00;101793.88;5083625;28;20274;-72
2022/02/26 03:27:04;;;;;;;19.47;2.70;;;;;;;1.87;100.00;101792.13;5086272;28;20198;-72
2022/02/26 03:29:33;;;;;;;14.27;2.47;;;;;;;1.88;100.00;101799.00;5080570;28;20297;-73
2022/02/26 03:31:59;;;;;;;11.07;1.80;;;;;;;1.88;100.00;101801.59;5078404;28;20247;-73
2022/02/26 03:34:25;;;;;;;13.80;2.17;;;;;;;1.89;100.00;101802.44;5082606;28;20209;-73
2022/02/26 03:36:55;;;;;;;15.77;2.97;;;;;;;1.90;100.00;101804.22;5072889;28;20558;-73
2022/02/26 03:39:21;;;;;;;11.20;2.30;;;;;;;1.93;100.00;101811.13;5067944;28;20292;-72
2022/02/26 03:41:48;;;;;;;13.27;2.43;;;;;;;1.95;100.00;101810.31;5068676;28;20218;-73
2022/02/26 03:44:14;;;;;;;18.83;2.87;;;;;;;1.96;100.00;101813.78;5070804;28;20203;-73
2022/02/26 03:46:42;;;;;;;18.03;2.50;;;;;;;1.98;100.00;101818.13;5065053;28;20206;-72
2022/02/26 03:49:08;;;;;;;18.17;2.40;;;;;;;1.97;100.00;101815.50;5067662;28;20230;-73
2022/02/26 03:51:36;;;;;;;19.57;3.60;;;;;;;1.98;100.00;101823.28;5066145;28;20195;-72
2022/02/26 03:54:03;;;;;;;14.40;2.60;;;;;;;2.00;100.00;101829.34;5067786;28;20201;-72
2022/02/26 03:56:30;;;;;;;15.43;2.70;;;;;;;2.00;100.00;101839.63;5068534;28;20199;-72
2022/02/26 03:58:57;;;;;;;16.07;2.63;;;;;;;2.01;100.00;101841.38;5067520;28;20233;-72
2022/02/26 04:01:23;;;;;;;11.73;2.13;;;;;;;1.99;100.00;101837.91;5070282;28;20210;-73
2022/02/26 04:03:51;;;;;;;12.70;2.17;;;;;;;1.94;100.00;101833.47;5074204;28;20212;-72
2022/02/26 04:06:18;;;;;;;13.77;2.17;;;;;;;1.91;100.00;101841.06;5076907;28;20575;-72
2022/02/26 04:08:44;;;;;;;10.03;2.30;;;;;;;1.88;100.00;101844.41;5073248;28;20218;-73
2022/02/26 04:11:10;;;;;;;7.57;2.00;;;;;;;1.85;100.00;101846.94;5072995;28;20218;-72
2022/02/26 04:13:37;;;;;;;10.80;2.60;;;;;;;1.83;100.00;101844.31;5074705;28;20198;-72
2022/02/26 04:16:04;;;;;;;17.23;2.87;;;;;;;1.84;100.00;101858.88;5071603;28;20190;-73
2022/02/26 04:18:30;;;;;;;11.43;2.47;;;;;;;1.82;100.00;101850.25;5070949;28;20222;-72
2022/02/26 04:20:58;;;;;;;16.47;3.00;;;;;;;1.82;100.00;101865.69;5076898;28;20198;-73
2022/02/26 04:23:25;;;;;;;11.30;2.43;;;;;;;1.83;100.00;101853.69;5069163;28;20277;-73
2022/02/26 04:25:51;;;;;;;18.57;3.17;;;;;;;1.82;100.00;101863.13;5069653;28;20218;-73
2022/02/26 04:28:18;;;;;;;16.97;2.53;;;;;;;1.82;100.00;101863.13;5072701;28;20234;-74
2022/02/26 04:30:45;;;;;;;18.33;2.47;;;;;;;1.82;100.00;101873.41;5066121;28;20211;-71
2022/02/26 04:33:12;;;;;;;17.17;2.77;;;;;;;1.84;100.00;101868.31;5088869;28;20365;-73
2022/02/26 04:35:38;;;;;;;16.07;2.60;;;;;;;1.84;100.00;101876.03;5093941;28;20222;-72
2022/02/26 04:38:07;;;;;;;19.10;2.90;;;;;;;1.83;100.00;101876.84;5087242;28;20206;-72
2022/02/26 04:40:33;;;;;;;12.70;2.57;;;;;;;1.84;100.00;101878.59;5086318;28;20186;-72
2022/02/26 04:42:59;;;;;;;19.23;2.97;;;;;;;1.83;100.00;101884.56;5092538;28;20297;-73
2022/02/26 04:45:26;;;;;;;20.70;3.33;;;;;;;1.83;100.00;101882.00;5088749;28;20759;-73
2022/02/26 04:47:53;;;;;;;17.47;3.07;;;;;;;1.85;100.00;101890.66;5089320;28;20222;-72
2022/02/26 04:50:20;;;;;;;24.03;3.57;;;;;;;1.85;100.00;101891.50;5085468;28;20226;-72
2022/02/26 04:52:47;;;;;;;17.27;2.50;;;;;;;1.82;100.00;101896.56;5086104;28;20202;-73
2022/02/26 04:55:15;;;;;;;17.03;2.60;;;;;;;1.83;100.00;101897.41;5072415;28;20206;-74
2022/02/26 04:57:42;;;;;;;20.33;3.37;;;;;;;1.81;100.00;101897.41;5097388;28;20227;-73
2022/02/26 05:00:11;;;;;;;11.90;3.20;;;;;;;1.82;100.00;101903.41;5070382;28;20206;-74
2022/02/26 05:02:38;;;;;;;15.50;2.77;;;;;;;1.83;100.00;101907.72;5063561;28;20726;-73
2022/02/26 05:05:05;;;;;;;11.30;2.70;;;;;;;1.83;100.00;101915.41;5089615;28;20209;-72
2022/02/26 05:07:31;;;;;;;15.90;2.27;;;;;;;1.81;100.00;101906.78;5090246;28;20261;-72
2022/02/26 05:09:58;;;;;;;12.70;3.47;;;;;;;1.81;100.00;101912.84;5082187;28;20688;-72
2022/02/26 05:12:25;;;;;;;19.00;3.47;;;;;;;1.79;100.00;101911.88;5062088;28;20199;-72
2022/02/26 05:14:54;;;;;;;15.87;3.37;;;;;;;1.79;100.00;101916.16;5064411;28;20199;-73
2022/02/26 05:17:20;;;;;;;16.17;2.53;;;;;;;1.79;100.00;101913.59;5066289;28;20202;-72
2022/02/26 05:19:47;;;;;;;17.67;3.10;;;;;;;1.79;100.00;101918.75;5066533;28;20210;-72
2022/02/26 05:22:13;;;;;;;16.27;3.10;;;;;;;1.76;100.00;101913.50;5064270;28;20213;-72
2022/02/26 05:24:40;;;;;;;15.07;2.50;;;;;;;1.74;100.00;101915.16;5067940;28;20207;-72
2022/02/26 05:27:06;;;;;;;15.17;2.77;;;;;;;1.73;100.00;101926.28;5066538;28;20205;-72
2022/02/26 05:29:34;;;;;;;15.13;3.30;;;;;;;1.69;100.00;101936.47;5065765;28;20209;-72
2022/02/26 05:32:01;;;;;;;9.27;2.43;;;;;;;1.70;100.00;101948.47;5070198;28;20191;-73
2022/02/26 05:34:27;;;;;;;21.03;3.07;;;;;;;1.69;100.00;101946.75;5084903;28;20265;-72
2022/02/26 05:36:53;;;;;;;23.50;2.93;;;;;;;1.68;100.00;101946.69;5092485;28;20218;-72
2022/02/26 05:39:20;;;;;;;9.80;2.77;;;;;;;1.69;100.00;101956.16;5087360;28;20270;-72
2022/02/26 05:41:47;;;;;;;16.33;2.70;;;;;;;1.70;100.00;101965.63;5083300;28;20218;-72
2022/02/26 05:44:14;;;;;;;20.07;3.63;;;;;;;1.72;100.00;101975.94;5085285;28;20186;-72
2022/02/26 05:46:41;;;;;;;15.67;3.60;;;;;;;1.73;100.00;101967.44;5087514;28;20186;-72
2022/02/26 05:49:08;;;;;;;13.20;2.83;;;;;;;1.75;100.00;101981.19;5086215;28;20279;-72
2022/02/26 05:51:34;;;;;;;14.37;2.93;;;;;;;1.76;100.00;101982.94;5086725;28;20194;-72
2022/02/26 05:54:01;;;;;;;15.83;3.10;;;;;;;1.75;100.00;101984.63;5086751;28;20201;-72
2022/02/26 05:56:27;;;;;;;13.13;3.13;;;;;;;1.78;100.00;101991.59;5085848;28;20266;-72
2022/02/26 05:58:53;;;;;;;19.90;3.40;;;;;;;1.79;100.00;101995.88;5091530;28;20294;-72
2022/02/26 06:01:20;;;;;;;19.57;3.03;;;;;;;1.79;100.00;102001.91;5066548;28;20700;-72
2022/02/26 06:03:48;;;;;;;13.03;3.13;;;;;;;1.81;100.00;102007.09;5066996;28;20214;-72
2022/02/26 06:06:14;;;;;;;12.67;2.80;;;;;;;1.81;100.00;102013.13;5062785;28;20281;-72
2022/02/26 06:08:40;;;;;;;12.53;3.03;;;;;;;1.82;100.00;102022.59;5064500;28;20542;-72
2022/02/26 06:11:07;;;;;;;10.87;2.93;;;;;;;1.83;100.00;102016.63;5070346;28;20218;-73
2022/02/26 06:13:33;;;;;;;16.07;3.10;;;;;;;1.86;100.00;102024.41;5068110;28;20199;-72
2022/02/26 06:15:59;;;;;;;19.80;3.33;;;;;;;1.86;100.00;102021.84;5069328;28;20309;-72
2022/02/26 06:18:26;;;;;;;17.13;3.17;;;;;;;1.87;100.00;102027.88;5070256;28;20301;-72
2022/02/26 06:20:54;;;;;;;13.40;3.20;;;;;;;1.86;100.00;102027.00;5078402;28;20222;-72
2022/02/26 06:23:21;;;;;;;14.80;3.03;;;;;;;1.89;100.00;102033.94;5068239;28;20233;-74
2022/02/26 06:25:47;;;;;;;18.63;3.40;;;;;;;1.89;100.00;102041.66;5065522;28;20205;-73
2022/02/26 06:28:14;;;;;;;12.77;2.70;;;;;;;1.91;100.00;102042.59;5063850;28;20223;-72
2022/02/26 06:30:41;;;;;;;10.93;2.80;;;;;;;1.92;100.00;102038.31;5070610;28;20671;-73
2022/02/26 06:33:12;;;;;;;16.53;3.13;;;;;;;1.92;100.00;102051.16;5075938;28;20213;-72
2022/02/26 06:35:38;;;;;;;18.47;3.47;;;;;;;1.94;100.00;102058.13;5077126;28;20899;-73
2022/02/26 06:38:06;;;;;;;15.90;2.67;;;;;;;1.96;100.00;102063.31;5070375;28;20237;-72
2022/02/26 06:40:32;;;;;;;11.47;2.87;;;;;;;1.97;100.00;102068.53;5070252;28;20194;-73
2022/02/26 06:42:59;;;;;;;19.10;3.40;;;;;;;1.98;100.00;102067.66;5069812;28;20234;-73
2022/02/26 06:45:26;;;;;;;13.97;2.90;;;;;;;2.01;100.00;102067.78;5068661;28;20214;-74
2022/02/26 06:47:52;;;;;;;15.07;3.43;;;;;;;2.00;100.00;102071.16;5097338;27;20723;-73
2022/02/26 06:50:19;;;;;;;11.97;3.10;;;;;;;2.02;100.00;102079.84;5084019;28;20553;-73
2022/02/26 06:52:45;;;;;;;23.30;3.43;;;;;;;2.01;100.00;102074.63;5082259;28;20201;-72
2022/02/26 06:55:13;;;;;;;12.63;2.93;;;;;;;2.02;100.00;102074.69;5082893;28;20198;-72
2022/02/26 06:57:40;;;;;;;13.60;2.77;;;;;;;2.04;100.00;102080.75;5089884;28;20273;-73
2022/02/26 07:00:08;;;;;;;22.27;3.07;;;;;;;2.04;100.00;102085.91;5101819;28;20231;-74
2022/02/26 07:02:35;;;;;;;15.63;3.07;;;;;;;2.04;100.00;102083.31;5071019;28;20218;-73
2022/02/26 07:05:01;;;;;;;10.77;2.53;;;;;;;2.06;100.00;102106.53;5064146;28;20199;-73
2022/02/26 07:07:28;;;;;;;17.87;3.43;;;;;;;2.08;100.00;102104.88;5062518;28;20234;-73
2022/02/26 07:09:54;;;;;;;19.00;3.10;;;;;;;2.10;100.00;102115.22;5096964;28;20198;-72
2022/02/26 07:12:22;;;;;;;19.57;3.17;;;;;;;2.12;100.00;102116.16;5064496;28;20194;-72
2022/02/26 07:14:48;;;;;;;14.47;2.87;;;;;;;2.11;100.00;102117.84;5069324;28;20206;-73
2022/02/26 07:17:15;;;;;;;16.37;3.53;;;;;;;2.12;100.00;102119.59;5066174;28;20213;-72
2022/02/26 07:19:42;;;;;;;16.13;2.97;;;;;;;2.14;100.00;102123.06;5069251;28;20213;-73
2022/02/26 07:22:08;;;;;;;17.43;3.13;;;;;;;2.13;100.00;102123.03;5068122;28;20244;-73
2022/02/26 07:24:35;;;;;;;14.40;3.50;;;;;;;2.16;100.00;102130.84;5085657;28;20208;-72
2022/02/26 07:27:01;;;;;;;24.53;3.97;;;;;;;2.19;100.00;102133.53;5089134;28;20205;-72
2022/02/26 07:29:30;;;;;;;14.67;3.13;;;;;;;2.20;100.00;102136.16;5076926;28;20210;-72
2022/02/26 07:31:57;;;;;;;20.20;4.13;;;;;;;2.22;100.00;102139.66;5079961;28;20206;-72
2022/02/26 07:34:23;;;;;;;14.33;3.50;;;;;;;2.24;100.00;102142.28;5088113;28;20282;-73
2022/02/26 07:36:50;;;;;;;15.33;3.70;;;;;;;2.27;100.00;102150.97;5086113;28;20214;-72
2022/02/26 07:39:16;;;;;;;15.13;3.40;;;;;;;2.28;100.00;102150.13;5077348;28;20712;-72
2022/02/26 07:41:43;;;;;;;13.27;3.03;;;;;;;2.31;100.00;102159.66;5073639;28;20198;-73
2022/02/26 07:44:09;;;;;;;12.50;3.23;;;;;;;2.33;100.00;102167.44;5075595;28;20878;-72
2022/02/26 07:46:37;;;;;;;21.17;3.97;;;;;;;2.36;100.00;102173.56;5077274;28;21746;-73
2022/02/26 07:49:03;;;;;;;12.13;3.13;;;;;;;2.38;100.00;102171.03;5070672;28;20218;-73
2022/02/26 07:51:30;;;;;;;19.33;3.63;;;;;;;2.44;100.00;102172.09;5068490;28;20206;-74
2022/02/26 07:53:57;;;;;;;18.43;3.27;;;;;;;2.51;100.00;102174.88;5077659;28;20268;-72
2022/02/26 07:56:23;;;;;;;16.87;3.23;;;;;;;2.57;100.00;102175.03;5078271;28;20290;-72
2022/02/26 07:58:49;;;;;;;14.43;3.87;;;;;;;2.68;100.00;102180.56;5070293;28;20916;-74
2022/02/26 08:01:17;;;;;;;17.07;3.47;;;;;;;2.70;100.00;102181.47;5068048;28;20696;-74
2022/02/26 08:03:45;;;;;;;18.73;4.20;;;;;;;2.76;100.00;102184.22;5077210;28;20271;-73
2022/02/26 08:06:11;;;;;;;21.67;3.97;;;;;;;2.86;100.00;102191.41;5071405;28;20277;-72
2022/02/26 08:08:38;;;;;;;16.67;3.40;;;;;;;2.92;100.00;102183.00;5072501;28;20230;-72
2022/02/26 08:11:04;;;;;;;15.43;3.37;;;;;;;2.98;100.00;102194.38;5082884;28;20198;-72
2022/02/26 08:13:31;;;;;;;18.80;3.73;;;;;;;3.01;100.00;102201.34;5085836;28;20205;-72
2022/02/26 08:15:57;;;;;;;14.10;3.10;;;;;;;3.13;100.00;102204.28;5071469;28;20201;-74
2022/02/26 08:18:24;;;;;;;14.27;3.40;;;;;;;3.16;100.00;102211.22;5068613;28;20215;-74
2022/02/26 08:20:51;;;;;;;13.73;3.20;;;;;;;3.26;100.00;102210.66;5074242;28;20203;-74
2022/02/26 08:23:18;;;;;;;19.93;4.00;;;;;;;3.35;100.00;102213.50;5070955;28;20210;-73
2022/02/26 08:25:44;;;;;;;18.63;4.03;;;;;;;3.44;100.00;102215.47;5074571;28;20206;-73
2022/02/26 08:28:11;;;;;;;18.97;4.50;;;;;;;3.47;100.00;102222.44;5065354;28;20334;-73
2022/02/26 08:30:37;;;;;;;18.60;3.90;;;;;;;3.50;100.00;102231.13;5068857;28;20207;-72
2022/02/26 08:33:04;;;;;;;17.27;3.20;;;;;;;3.47;100.00;102243.06;5074073;28;20193;-74
2022/02/26 08:35:30;;;;;;;12.70;3.30;;;;;;;3.47;100.00;102246.50;5069343;28;20206;-73
2022/02/26 08:37:58;;;;;;;15.47;3.60;;;;;;;3.52;100.00;102246.66;5071302;28;20591;-73
2022/02/26 08:40:25;;;;;;;13.37;3.23;;;;;;;3.53;100.00;102241.50;5070969;28;20199;-72
2022/02/26 08:42:51;;;;;;;21.20;3.40;;;;;;;3.57;100.00;102251.09;5067110;28;20212;-73
2022/02/26 08:45:18;;;;;;;22.60;3.90;;;;;;;3.57;100.00;102261.44;5068313;28;20206;-72
2022/02/26 08:47:45;;;;;;;17.43;3.37;;;;;;;3.60;100.00;102256.34;5066530;28;20690;-74
2022/02/26 08:50:14;;;;;;;18.53;4.40;;;;;;;3.64;100.00;102262.47;5074340;28;20211;-73
2022/02/26 08:52:44;;;;;;;13.90;3.47;;;;;;;3.68;100.00;102272.06;5068421;28;20285;-73
2022/02/26 08:55:12;;;;;;;19.97;4.23;;;;;;;3.65;100.00;102277.13;5065031;28;20199;-74
2022/02/26 08:57:40;;;;;;;16.40;3.67;;;;;;;3.65;100.00;102276.25;5073684;28;20237;-72
2022/02/26 09:00:09;;;;;;;13.07;3.33;;;;;;;3.63;100.00;102291.69;5072303;28;20187;-72
2022/02/26 09:02:35;;;;;;;12.93;3.40;;;;;;;3.64;100.00;102285.69;5078358;28;20595;-73
2022/02/26 09:05:02;;;;;;;21.10;6.87;;;;;;;3.66;100.00;102289.19;5072890;28;20203;-74
2022/02/26 09:07:28;;;;;;;12.73;3.67;;;;;;;3.67;100.00;102293.50;5066630;28;20226;-73
2022/02/26 09:09:55;;;;;;;15.90;4.17;;;;;;;3.68;100.00;102296.97;5067861;28;20202;-74
2022/02/26 09:12:22;;;;;;;15.83;4.10;;;;;;;3.66;100.00;102301.19;5097764;27;20591;-74
2022/02/26 09:14:49;;;;;;;11.47;3.50;;;;;;;3.70;100.00;102305.63;5066256;28;20198;-73
2022/02/26 09:17:15;;;;;;;13.80;3.70;;;;;;;3.82;100.00;102302.50;5069449;28;20696;-73
2022/02/26 09:19:42;;;;;;;18.77;3.50;;;;;;;3.81;100.00;102314.53;5066397;28;20687;-73
2022/02/26 09:22:09;;;;;;;19.17;3.10;;;;;;;3.87;100.00;102319.00;5065202;28;20210;-73
2022/02/26 09:24:35;;;;;;;18.03;3.37;;;;;;;3.84;100.00;102324.97;5063368;28;20910;-73
2022/02/26 09:27:02;;;;;;;16.10;3.17;;;;;;;3.89;100.00;102322.53;5077618;28;20198;-73
2022/02/26 09:29:30;;;;;;;14.20;3.23;;;;;;;3.97;100.00;102327.06;5070928;28;20220;-72
2022/02/26 09:31:57;;;;;;;10.70;2.70;;;;;;;4.05;100.00;102331.56;5073483;28;20218;-72
2022/02/26 09:34:24;;;;;;;11.13;2.90;;;;;;;4.08;100.00;102327.38;5070786;28;20201;-73
2022/02/26 09:36:53;;;;;;;11.70;4.40;;;;;;;4.17;100.00;102337.06;5065437;28;20301;-73
2022/02/26 09:39:19;;;;;;;27.93;8.93;;;;;;;4.29;100.00;102331.34;5078695;28;20202;-73
2022/02/26 09:41:47;;;;;;;22.83;7.83;;;;;;;4.40;100.00;102334.22;5071044;28;20191;-73
2022/02/26 09:44:15;;;;;;;18.70;5.63;;;;;;;4.48;100.00;102350.81;5067843;28;20279;-73
2022/02/26 09:46:44;;;;;;;12.40;3.33;;;;;;;4.57;100.00;102355.34;5076108;28;20627;-73
2022/02/26 09:49:10;;;;;;;14.87;3.67;;;;;;;4.62;100.00;102356.34;5076312;28;20218;-73
2022/02/26 09:51:40;;;;;;;18.23;4.37;;;;;;;4.63;100.00;102358.09;5111305;27;20201;-73
2022/02/26 09:54:06;;;;;;;19.30;4.20;;;;;;;4.74;100.00;102364.41;5070321;28;20199;-73
2022/02/26 09:56:32;;;;;;;21.07;5.83;;;;;;;4.83;100.00;102371.53;5071553;28;20208;-74
2022/02/26 09:58:59;;;;;;;19.07;4.00;;;;;;;4.84;100.00;102378.44;5068033;28;20257;-73
2022/02/26 10:01:25;;;;;;;16.33;4.43;;;;;;;4.73;100.00;102384.22;5067492;28;20288;-74
2022/02/26 10:04:06;;;;;;;17.97;5.63;;;;;;;4.59;100.00;102395.91;5063891;28;20210;-74
2022/02/26 10:06:33;;;;;;;20.30;5.70;;;;;;;4.53;100.00;102387.97;5105426;27;20699;-74
2022/02/26 10:09:01;;;;;;;13.30;3.50;;;;;;;4.50;100.00;102393.94;5075290;28;20248;-73
2022/02/26 10:11:30;;;;;;;12.93;3.03;;;;;;;4.51;100.00;102399.97;5071131;28;20197;-73
2022/02/26 10:14:02;;;;;;;16.70;3.23;;;;;;;4.54;100.00;102398.34;5068559;28;20856;-73
2022/02/26 10:16:48;;;;;;;15.90;4.10;;;;;;;4.60;100.00;102397.63;5070572;28;20289;-73
2022/02/26 10:19:25;;;;;;;13.70;4.00;;;;;;;4.64;100.00;102396.00;5067385;28;20317;-73
2022/02/26 10:21:52;;;;;;;17.73;4.40;;;;;;;4.82;100.00;102396.50;5060883;28;20194;-73
2022/02/26 10:24:19;;;;;;;9.00;3.23;;;;;;;4.99;100.00;102399.50;5067593;28;20244;-73
2022/02/26 10:26:51;;;;;;;11.70;3.13;;;;;;;5.07;100.00;102410.91;5066391;28;20206;-73
2022/02/26 10:29:19;;;;;;;17.43;3.50;;;;;;;5.21;100.00;102407.81;5068582;28;20229;-73
2022/02/26 10:31:49;;;;;;;12.17;3.90;;;;;;;5.15;100.00;102407.66;5100824;28;20229;-72
2022/02/26 10:34:28;;;;;;;12.37;3.20;;;;;;;4.94;100.00;102414.00;5073503;28;20194;-73
2022/02/26 10:37:04;;;;;;;10.17;3.70;;;;;;;4.76;100.00;102413.56;5071769;28;20292;-72
2022/02/26 10:39:32;;;;;;;14.73;3.50;;;;;;;4.70;100.00;102409.09;5062206;28;20241;-74
2022/02/26 10:41:59;;;;;;;12.57;4.20;;;;;;;4.67;100.00;102415.03;5064007;28;20672;-72
2022/02/26 10:44:26;;;;;;;22.87;3.73;;;;;;;4.59;100.00;102411.41;5069435;28;20207;-74
2022/02/26 10:46:53;;;;;;;17.97;4.13;;;;;;;4.58;100.00;102416.53;5070195;28;20212;-73
2022/02/26 10:49:20;;;;;;;13.30;3.17;;;;;;;4.65;100.00;102413.28;5101579;28;20747;-72
2022/02/26 10:51:49;;;;;;;10.77;3.17;;;;;;;4.63;100.00;102412.34;5074065;28;20607;-75
2022/02/26 10:54:21;;;;;;;15.13;3.67;;;;;;;4.71;100.00;102416.91;5062613;28;20207;-75
2022/02/26 10:56:48;;;;;;;9.80;2.60;;;;;;;4.81;99.87;102412.84;5071017;28;20211;-73
2022/02/26 10:59:27;;;;;;;12.60;2.93;;;;;;;5.15;99.64;102423.16;5071890;28;20211;-73
2022/02/26 11:02:00;;;;;;;12.30;2.60;;;;;;;5.47;96.77;102422.25;5100332;28;20206;-74
2022/02/26 11:04:26;;;;;;;7.50;2.37;;;;;;;5.82;96.02;102424.75;5072408;28;20817;-73
2022/02/26 11:06:54;;;;;;;13.03;3.03;;;;;;;5.80;92.25;102428.16;5078417;28;20212;-73
2022/02/26 11:09:22;;;;;;;7.87;2.30;;;;;;;5.66;90.34;102433.00;5071087;28;20229;-73
2022/02/26 11:11:50;;;;;;;13.20;2.93;;;;;;;5.62;92.79;102428.59;5069299;28;20587;-72
2022/02/26 11:14:22;;;;;;;12.73;2.97;;;;;;;5.55;92.16;102434.47;5069119;28;20229;-73
2022/02/26 11:16:50;;;;;;;10.50;2.90;;;;;;;5.46;91.67;102433.41;5076787;28;20251;-74
2022/02/26 11:19:20;;;;;;;12.20;2.47;;;;;;;5.46;91.85;102430.81;5064617;28;20238;-72
2022/02/26 11:21:48;;;;;;;11.73;2.90;;;;;;;5.49;92.62;102427.44;5070661;28;20202;-72